sensor_id;sensor_type;location;lat;lon;timestamp;pressure;altitude;pressure_sealevel;temperature;humidity
70127;BME280;57491;42.694;23.314;2023-04-23T00:00:08;95089.22;;;11.95;60.99
70127;BME280;57491;42.694;23.314;2023-04-23T00:02:37;95088.47;;;11.80;60.98
70127;BME280;57491;42.694;23.314;2023-04-23T00:05:06;95094.31;;;11.82;61.94
70127;BME280;57491;42.694;23.314;2023-04-23T00:07:35;95091.03;;;11.74;61.06
70127;BME280;57491;42.694;23.314;2023-04-23T00:10:05;95076.91;;;11.68;61.20
70127;BME280;57491;42.694;23.314;2023-04-23T00:12:34;95088.25;;;11.75;61.57
70127;BME280;57491;42.694;23.314;2023-04-23T00:15:04;95089.03;;;11.76;62.12
70127;BME280;57491;42.694;23.314;2023-04-23T00:17:32;95090.47;;;11.78;61.76
70127;BME280;57491;42.694;23.314;2023-04-23T00:20:00;95092.28;;;11.78;60.95
70127;BME280;57491;42.694;23.314;2023-04-23T00:22:27;95091.47;;;11.77;61.45
70127;BME280;57491;42.694;23.314;2023-04-23T00:24:54;95088.16;;;11.69;61.32
70127;BME280;57491;42.694;23.314;2023-04-23T00:27:22;95081.75;;;11.71;61.43
70127;BME280;57491;42.694;23.314;2023-04-23T00:29:51;95092.84;;;11.73;61.54
70127;BME280;57491;42.694;23.314;2023-04-23T00:32:20;95081.31;;;11.68;62.49
70127;BME280;57491;42.694;23.314;2023-04-23T00:34:48;95087.16;;;11.70;62.25
70127;BME280;57491;42.694;23.314;2023-04-23T00:37:16;95089.75;;;11.70;62.07
70127;BME280;57491;42.694;23.314;2023-04-23T00:39:44;95091.38;;;11.71;61.92
70127;BME280;57491;42.694;23.314;2023-04-23T00:42:11;95086.34;;;11.69;61.77
70127;BME280;57491;42.694;23.314;2023-04-23T00:44:41;95087.34;;;11.68;61.91
70127;BME280;57491;42.694;23.314;2023-04-23T00:47:09;95087.75;;;11.72;62.53
70127;BME280;57491;42.694;23.314;2023-04-23T00:49:38;95085.38;;;11.70;60.88
70127;BME280;57491;42.694;23.314;2023-04-23T00:52:06;95076.88;;;11.61;61.11
70127;BME280;57491;42.694;23.314;2023-04-23T00:54:36;95079.13;;;11.50;61.96
70127;BME280;57491;42.694;23.314;2023-04-23T00:57:03;95092.78;;;11.52;62.49
70127;BME280;57491;42.694;23.314;2023-04-23T00:59:32;95092.69;;;11.45;61.91
70127;BME280;57491;42.694;23.314;2023-04-23T01:02:00;95095.47;;;11.44;62.04
70127;BME280;57491;42.694;23.314;2023-04-23T01:04:29;95083.94;;;11.32;61.73
70127;BME280;57491;42.694;23.314;2023-04-23T01:06:59;95086.91;;;11.29;63.95
70127;BME280;57491;42.694;23.314;2023-04-23T01:09:28;95086.47;;;11.25;64.83
70127;BME280;57491;42.694;23.314;2023-04-23T01:11:57;95087.63;;;11.23;64.34
70127;BME280;57491;42.694;23.314;2023-04-23T01:14:30;95073.47;;;11.10;63.80
70127;BME280;57491;42.694;23.314;2023-04-23T01:16:59;95089.97;;;11.17;64.48
70127;BME280;57491;42.694;23.314;2023-04-23T01:19:29;95085.13;;;11.14;64.13
70127;BME280;57491;42.694;23.314;2023-04-23T01:21:58;95091.53;;;11.12;63.89
70127;BME280;57491;42.694;23.314;2023-04-23T01:24:32;95090.72;;;11.11;64.03
70127;BME280;57491;42.694;23.314;2023-04-23T01:27:01;95088.19;;;11.03;63.96
70127;BME280;57491;42.694;23.314;2023-04-23T01:29:32;95090.00;;;11.03;64.38
70127;BME280;57491;42.694;23.314;2023-04-23T01:32:04;95090.44;;;11.06;64.60
70127;BME280;57491;42.694;23.314;2023-04-23T01:34:32;95094.28;;;11.10;63.46
70127;BME280;57491;42.694;23.314;2023-04-23T01:37:06;95091.44;;;11.05;63.73
70127;BME280;57491;42.694;23.314;2023-04-23T01:39:42;95091.44;;;11.05;63.29
70127;BME280;57491;42.694;23.314;2023-04-23T01:42:10;95084.59;;;11.04;63.94
70127;BME280;57491;42.694;23.314;2023-04-23T01:44:38;95091.97;;;11.01;63.45
70127;BME280;57491;42.694;23.314;2023-04-23T01:47:06;95102.53;;;10.99;63.36
70127;BME280;57491;42.694;23.314;2023-04-23T01:49:34;95101.28;;;10.95;64.00
70127;BME280;57491;42.694;23.314;2023-04-23T01:52:11;95086.78;;;10.86;64.21
70127;BME280;57491;42.694;23.314;2023-04-23T01:54:49;95092.69;;;10.95;64.29
70127;BME280;57491;42.694;23.314;2023-04-23T01:57:18;95088.13;;;10.97;63.66
70127;BME280;57491;42.694;23.314;2023-04-23T01:59:49;95085.16;;;10.85;63.41
70127;BME280;57491;42.694;23.314;2023-04-23T02:02:16;95095.28;;;10.95;63.88
70127;BME280;57491;42.694;23.314;2023-04-23T02:04:45;95094.13;;;10.97;64.02
70127;BME280;57491;42.694;23.314;2023-04-23T02:07:14;95101.66;;;10.92;64.36
70127;BME280;57491;42.694;23.314;2023-04-23T02:09:41;95104.72;;;10.96;64.33
70127;BME280;57491;42.694;23.314;2023-04-23T02:12:11;95103.28;;;10.93;64.66
70127;BME280;57491;42.694;23.314;2023-04-23T02:14:39;95100.03;;;10.91;64.96
70127;BME280;57491;42.694;23.314;2023-04-23T02:17:09;95077.81;;;10.74;64.34
70127;BME280;57491;42.694;23.314;2023-04-23T02:19:37;95101.66;;;10.92;64.95
70127;BME280;57491;42.694;23.314;2023-04-23T02:22:06;95105.06;;;10.93;63.34
70127;BME280;57491;42.694;23.314;2023-04-23T02:24:34;95103.63;;;10.90;63.14
70127;BME280;57491;42.694;23.314;2023-04-23T02:27:03;95099.50;;;10.81;63.13
70127;BME280;57491;42.694;23.314;2023-04-23T02:29:33;95100.56;;;10.72;63.25
70127;BME280;57491;42.694;23.314;2023-04-23T02:32:02;95102.94;;;10.67;63.29
70127;BME280;57491;42.694;23.314;2023-04-23T02:34:29;95106.22;;;10.61;63.87
70127;BME280;57491;42.694;23.314;2023-04-23T02:37:04;95104.44;;;10.61;64.63
70127;BME280;57491;42.694;23.314;2023-04-23T02:39:32;95113.50;;;10.65;65.32
70127;BME280;57491;42.694;23.314;2023-04-23T02:41:59;95105.97;;;10.70;66.26
70127;BME280;57491;42.694;23.314;2023-04-23T02:44:26;95111.72;;;10.66;65.02
70127;BME280;57491;42.694;23.314;2023-04-23T02:46:55;95106.50;;;10.66;64.64
70127;BME280;57491;42.694;23.314;2023-04-23T02:49:26;95081.66;;;10.49;64.04
70127;BME280;57491;42.694;23.314;2023-04-23T02:51:54;95102.00;;;10.60;64.07
70127;BME280;57491;42.694;23.314;2023-04-23T02:54:21;95104.44;;;10.61;64.19
70127;BME280;57491;42.694;23.314;2023-04-23T02:56:49;95115.66;;;10.62;64.38
70127;BME280;57491;42.694;23.314;2023-04-23T02:59:23;95108.47;;;10.64;64.26
70127;BME280;57491;42.694;23.314;2023-04-23T03:01:51;95104.63;;;10.60;63.55
70127;BME280;57491;42.694;23.314;2023-04-23T03:04:22;95114.19;;;10.59;64.20
70127;BME280;57491;42.694;23.314;2023-04-23T03:06:51;95115.00;;;10.60;65.19
70127;BME280;57491;42.694;23.314;2023-04-23T03:09:19;95114.03;;;10.61;64.35
70127;BME280;57491;42.694;23.314;2023-04-23T03:11:49;95110.97;;;10.57;64.83
70127;BME280;57491;42.694;23.314;2023-04-23T03:14:17;95117.34;;;10.55;64.43
70127;BME280;57491;42.694;23.314;2023-04-23T03:16:44;95121.44;;;10.49;63.41
70127;BME280;57491;42.694;23.314;2023-04-23T03:19:15;95110.84;;;10.36;63.26
70127;BME280;57491;42.694;23.314;2023-04-23T03:21:44;95118.84;;;10.35;64.03
70127;BME280;57491;42.694;23.314;2023-04-23T03:24:12;95124.88;;;10.27;63.70
70127;BME280;57491;42.694;23.314;2023-04-23T03:26:41;95124.28;;;10.25;63.83
70127;BME280;57491;42.694;23.314;2023-04-23T03:29:11;95118.84;;;10.12;64.32
70127;BME280;57491;42.694;23.314;2023-04-23T03:31:38;95135.22;;;10.12;64.77
70127;BME280;57491;42.694;23.314;2023-04-23T03:34:06;95121.44;;;10.12;64.89
70127;BME280;57491;42.694;23.314;2023-04-23T03:36:33;95123.34;;;10.18;65.71
70127;BME280;57491;42.694;23.314;2023-04-23T03:39:02;95124.63;;;10.22;64.55
70127;BME280;57491;42.694;23.314;2023-04-23T03:41:30;95126.41;;;10.21;64.38
70127;BME280;57491;42.694;23.314;2023-04-23T03:43:58;95127.50;;;10.27;64.47
70127;BME280;57491;42.694;23.314;2023-04-23T03:46:25;95126.34;;;10.29;64.61
70127;BME280;57491;42.694;23.314;2023-04-23T03:48:53;95114.69;;;10.25;64.58
70127;BME280;57491;42.694;23.314;2023-04-23T03:51:20;95131.31;;;10.39;64.56
70127;BME280;57491;42.694;23.314;2023-04-23T03:53:48;95140.88;;;10.39;64.78
70127;BME280;57491;42.694;23.314;2023-04-23T03:56:18;95133.81;;;10.47;64.12
70127;BME280;57491;42.694;23.314;2023-04-23T03:58:48;95135.19;;;10.58;65.57
70127;BME280;57491;42.694;23.314;2023-04-23T04:01:16;95137.25;;;10.62;63.55
70127;BME280;57491;42.694;23.314;2023-04-23T04:03:52;95134.84;;;10.61;63.86
70127;BME280;57491;42.694;23.314;2023-04-23T04:06:20;95142.19;;;10.72;63.98
70127;BME280;57491;42.694;23.314;2023-04-23T04:08:47;95144.97;;;10.70;63.22
70127;BME280;57491;42.694;23.314;2023-04-23T04:11:16;95142.28;;;10.64;63.34
70127;BME280;57491;42.694;23.314;2023-04-23T04:13:44;95142.91;;;10.66;63.57
70127;BME280;57491;42.694;23.314;2023-04-23T04:16:12;95139.34;;;10.67;64.23
70127;BME280;57491;42.694;23.314;2023-04-23T04:18:39;95145.59;;;10.58;62.63
70127;BME280;57491;42.694;23.314;2023-04-23T04:21:07;95150.72;;;10.66;62.55
70127;BME280;57491;42.694;23.314;2023-04-23T04:23:35;95149.00;;;10.73;62.59
70127;BME280;57491;42.694;23.314;2023-04-23T04:26:02;95142.72;;;10.82;62.25
70127;BME280;57491;42.694;23.314;2023-04-23T04:28:30;95151.28;;;10.76;62.63
70127;BME280;57491;42.694;23.314;2023-04-23T04:31:02;95151.06;;;10.78;63.01
70127;BME280;57491;42.694;23.314;2023-04-23T04:33:33;95152.59;;;10.87;63.20
70127;BME280;57491;42.694;23.314;2023-04-23T04:36:05;95158.09;;;10.92;62.57
70127;BME280;57491;42.694;23.314;2023-04-23T04:38:33;95161.03;;;11.03;61.97
70127;BME280;57491;42.694;23.314;2023-04-23T04:41:02;95159.97;;;11.12;60.89
70127;BME280;57491;42.694;23.314;2023-04-23T04:43:30;95165.81;;;11.14;61.47
70127;BME280;57491;42.694;23.314;2023-04-23T04:45:59;95165.38;;;11.26;60.71
70127;BME280;57491;42.694;23.314;2023-04-23T04:48:28;95170.97;;;11.44;59.29
70127;BME280;57491;42.694;23.314;2023-04-23T04:50:55;95164.34;;;11.41;60.27
70127;BME280;57491;42.694;23.314;2023-04-23T04:53:23;95173.84;;;11.49;59.45
70127;BME280;57491;42.694;23.314;2023-04-23T04:55:50;95174.09;;;11.54;60.11
70127;BME280;57491;42.694;23.314;2023-04-23T04:58:17;95176.59;;;11.62;58.78
70127;BME280;57491;42.694;23.314;2023-04-23T05:00:45;95179.84;;;11.64;58.45
70127;BME280;57491;42.694;23.314;2023-04-23T05:03:13;95179.41;;;11.60;59.43
70127;BME280;57491;42.694;23.314;2023-04-23T05:05:42;95169.88;;;11.68;58.67
70127;BME280;57491;42.694;23.314;2023-04-23T05:08:10;95162.06;;;11.82;58.20
70127;BME280;57491;42.694;23.314;2023-04-23T05:10:41;95168.47;;;12.01;57.16
70127;BME280;57491;42.694;23.314;2023-04-23T05:13:09;95177.78;;;12.10;57.12
70127;BME280;57491;42.694;23.314;2023-04-23T05:15:37;95169.19;;;12.16;56.86
70127;BME280;57491;42.694;23.314;2023-04-23T05:18:04;95178.44;;;12.40;56.35
70127;BME280;57491;42.694;23.314;2023-04-23T05:20:34;95171.25;;;12.42;56.90
70127;BME280;57491;42.694;23.314;2023-04-23T05:23:03;95167.38;;;12.59;55.60
70127;BME280;57491;42.694;23.314;2023-04-23T05:25:31;95177.53;;;12.75;55.06
70127;BME280;57491;42.694;23.314;2023-04-23T05:27:59;95175.31;;;12.72;55.83
70127;BME280;57491;42.694;23.314;2023-04-23T05:30:28;95183.09;;;12.93;55.14
70127;BME280;57491;42.694;23.314;2023-04-23T05:32:55;95182.56;;;13.05;54.14
70127;BME280;57491;42.694;23.314;2023-04-23T05:35:23;95183.97;;;13.07;54.20
70127;BME280;57491;42.694;23.314;2023-04-23T05:37:50;95185.25;;;13.11;53.72
70127;BME280;57491;42.694;23.314;2023-04-23T05:40:19;95181.28;;;13.22;53.47
70127;BME280;57491;42.694;23.314;2023-04-23T05:42:49;95176.88;;;13.22;53.39
70127;BME280;57491;42.694;23.314;2023-04-23T05:45:17;95179.69;;;13.21;53.54
70127;BME280;57491;42.694;23.314;2023-04-23T05:47:44;95176.78;;;13.37;54.28
70127;BME280;57491;42.694;23.314;2023-04-23T05:50:12;95182.59;;;13.39;53.98
70127;BME280;57491;42.694;23.314;2023-04-23T05:52:39;95183.88;;;13.56;53.01
70127;BME280;57491;42.694;23.314;2023-04-23T05:55:07;95188.59;;;13.80;52.19
70127;BME280;57491;42.694;23.314;2023-04-23T05:57:37;95189.69;;;13.99;52.02
70127;BME280;57491;42.694;23.314;2023-04-23T06:00:05;95191.69;;;14.04;51.62
70127;BME280;57491;42.694;23.314;2023-04-23T06:02:36;95186.28;;;14.12;51.31
70127;BME280;57491;42.694;23.314;2023-04-23T06:05:04;95194.34;;;14.23;51.48
70127;BME280;57491;42.694;23.314;2023-04-23T06:07:32;95185.50;;;14.18;51.01
70127;BME280;57491;42.694;23.314;2023-04-23T06:10:01;95182.06;;;14.11;51.41
70127;BME280;57491;42.694;23.314;2023-04-23T06:12:29;95180.44;;;14.10;51.84
70127;BME280;57491;42.694;23.314;2023-04-23T06:14:58;95180.53;;;14.36;50.88
70127;BME280;57491;42.694;23.314;2023-04-23T06:17:26;95182.53;;;14.47;51.04
70127;BME280;57491;42.694;23.314;2023-04-23T06:19:59;95188.19;;;14.70;51.07
70127;BME280;57491;42.694;23.314;2023-04-23T06:22:27;95177.31;;;14.87;50.28
70127;BME280;57491;42.694;23.314;2023-04-23T06:24:54;95176.91;;;14.96;50.85
70127;BME280;57491;42.694;23.314;2023-04-23T06:27:22;95182.13;;;14.96;50.90
70127;BME280;57491;42.694;23.314;2023-04-23T06:29:49;95177.88;;;15.08;49.85
70127;BME280;57491;42.694;23.314;2023-04-23T06:32:19;95187.38;;;15.03;50.03
70127;BME280;57491;42.694;23.314;2023-04-23T06:34:46;95183.75;;;15.10;50.02
70127;BME280;57491;42.694;23.314;2023-04-23T06:37:14;95178.28;;;15.25;49.27
70127;BME280;57491;42.694;23.314;2023-04-23T06:39:41;95173.63;;;15.27;49.43
70127;BME280;57491;42.694;23.314;2023-04-23T06:42:11;95182.06;;;15.36;49.10
70127;BME280;57491;42.694;23.314;2023-04-23T06:44:38;95179.00;;;15.58;48.92
70127;BME280;57491;42.694;23.314;2023-04-23T06:47:05;95174.75;;;15.64;48.75
70127;BME280;57491;42.694;23.314;2023-04-23T06:49:34;95179.19;;;15.70;48.55
70127;BME280;57491;42.694;23.314;2023-04-23T06:52:02;95182.69;;;16.02;47.85
70127;BME280;57491;42.694;23.314;2023-04-23T06:54:29;95178.53;;;16.19;47.47
70127;BME280;57491;42.694;23.314;2023-04-23T06:56:57;95182.91;;;16.32;47.32
70127;BME280;57491;42.694;23.314;2023-04-23T06:59:24;95175.31;;;16.17;47.58
70127;BME280;57491;42.694;23.314;2023-04-23T07:01:51;95176.75;;;16.44;46.52
70127;BME280;57491;42.694;23.314;2023-04-23T07:04:18;95177.31;;;16.60;46.66
70127;BME280;57491;42.694;23.314;2023-04-23T07:06:47;95176.38;;;16.72;46.90
70127;BME280;57491;42.694;23.314;2023-04-23T07:09:15;95161.81;;;16.76;46.72
70127;BME280;57491;42.694;23.314;2023-04-23T07:11:42;95170.19;;;16.91;45.91
70127;BME280;57491;42.694;23.314;2023-04-23T07:14:10;95166.03;;;17.02;45.69
70127;BME280;57491;42.694;23.314;2023-04-23T07:16:37;95178.34;;;17.45;44.99
70127;BME280;57491;42.694;23.314;2023-04-23T07:19:04;95156.38;;;17.57;44.34
70127;BME280;57491;42.694;23.314;2023-04-23T07:21:32;95175.28;;;17.84;44.11
70127;BME280;57491;42.694;23.314;2023-04-23T07:24:02;95169.47;;;17.82;44.40
70127;BME280;57491;42.694;23.314;2023-04-23T07:26:31;95166.53;;;17.90;43.84
70127;BME280;57491;42.694;23.314;2023-04-23T07:28:59;95166.97;;;18.17;43.49
70127;BME280;57491;42.694;23.314;2023-04-23T07:31:26;95165.63;;;18.56;42.53
70127;BME280;57491;42.694;23.314;2023-04-23T07:33:54;95156.06;;;18.73;42.30
70127;BME280;57491;42.694;23.314;2023-04-23T07:36:22;95145.19;;;18.81;41.47
70127;BME280;57491;42.694;23.314;2023-04-23T07:38:49;95159.28;;;18.98;41.71
70127;BME280;57491;42.694;23.314;2023-04-23T07:41:18;95169.13;;;19.14;41.73
70127;BME280;57491;42.694;23.314;2023-04-23T07:43:45;95163.84;;;19.38;40.43
70127;BME280;57491;42.694;23.314;2023-04-23T07:46:12;95165.09;;;19.70;39.81
70127;BME280;57491;42.694;23.314;2023-04-23T07:48:40;95163.75;;;19.96;39.39
70127;BME280;57491;42.694;23.314;2023-04-23T07:51:07;95160.25;;;20.19;38.89
70127;BME280;57491;42.694;23.314;2023-04-23T07:53:35;95149.59;;;20.14;38.69
70127;BME280;57491;42.694;23.314;2023-04-23T07:56:02;95159.00;;;20.10;38.64
70127;BME280;57491;42.694;23.314;2023-04-23T07:58:31;95159.97;;;20.32;39.04
70127;BME280;57491;42.694;23.314;2023-04-23T08:01:00;95159.13;;;20.43;38.31
70127;BME280;57491;42.694;23.314;2023-04-23T08:03:28;95169.22;;;19.78;37.36
70127;BME280;57491;42.694;23.314;2023-04-23T08:05:55;95156.75;;;19.50;39.27
70127;BME280;57491;42.694;23.314;2023-04-23T08:08:22;95153.88;;;20.03;39.12
70127;BME280;57491;42.694;23.314;2023-04-23T08:10:50;95159.44;;;20.30;38.37
70127;BME280;57491;42.694;23.314;2023-04-23T08:13:17;95157.47;;;20.25;37.34
70127;BME280;57491;42.694;23.314;2023-04-23T08:15:46;95156.88;;;20.35;37.26
70127;BME280;57491;42.694;23.314;2023-04-23T08:18:17;95163.63;;;20.59;37.90
70127;BME280;57491;42.694;23.314;2023-04-23T08:20:44;95153.25;;;21.19;36.82
70127;BME280;57491;42.694;23.314;2023-04-23T08:23:12;95154.25;;;21.52;35.99
70127;BME280;57491;42.694;23.314;2023-04-23T08:25:42;95143.47;;;21.80;35.44
70127;BME280;57491;42.694;23.314;2023-04-23T08:28:09;95157.19;;;21.77;35.11
70127;BME280;57491;42.694;23.314;2023-04-23T08:30:37;95144.09;;;22.09;34.44
70127;BME280;57491;42.694;23.314;2023-04-23T08:33:08;95145.91;;;22.30;33.87
70127;BME280;57491;42.694;23.314;2023-04-23T08:35:35;95138.84;;;22.67;32.98
70127;BME280;57491;42.694;23.314;2023-04-23T08:38:03;95141.25;;;22.69;32.67
70127;BME280;57491;42.694;23.314;2023-04-23T08:40:31;95129.78;;;22.90;32.75
70127;BME280;57491;42.694;23.314;2023-04-23T08:43:02;95128.69;;;23.23;32.79
70127;BME280;57491;42.694;23.314;2023-04-23T08:45:29;95098.84;;;23.06;32.02
70127;BME280;57491;42.694;23.314;2023-04-23T08:47:59;95129.97;;;22.84;32.94
70127;BME280;57491;42.694;23.314;2023-04-23T08:50:29;95126.16;;;23.06;32.27
70127;BME280;57491;42.694;23.314;2023-04-23T08:52:57;95125.13;;;23.49;31.53
70127;BME280;57491;42.694;23.314;2023-04-23T08:55:24;95122.69;;;24.05;30.78
70127;BME280;57491;42.694;23.314;2023-04-23T08:57:52;95122.66;;;23.90;30.43
70127;BME280;57491;42.694;23.314;2023-04-23T09:00:20;95112.31;;;23.36;31.81
70127;BME280;57491;42.694;23.314;2023-04-23T09:02:48;95115.97;;;23.77;31.55
70127;BME280;57491;42.694;23.314;2023-04-23T09:05:16;95121.03;;;23.84;31.57
70127;BME280;57491;42.694;23.314;2023-04-23T09:07:45;95103.53;;;23.88;30.31
70127;BME280;57491;42.694;23.314;2023-04-23T09:10:13;95116.31;;;24.06;30.31
70127;BME280;57491;42.694;23.314;2023-04-23T09:12:41;95116.44;;;24.52;29.58
70127;BME280;57491;42.694;23.314;2023-04-23T09:15:10;95115.38;;;25.13;28.31
70127;BME280;57491;42.694;23.314;2023-04-23T09:17:39;95111.41;;;25.01;28.89
70127;BME280;57491;42.694;23.314;2023-04-23T09:20:07;95107.41;;;25.18;28.34
70127;BME280;57491;42.694;23.314;2023-04-23T09:22:39;95107.59;;;25.52;28.29
70127;BME280;57491;42.694;23.314;2023-04-23T09:25:10;95108.97;;;25.29;28.18
70127;BME280;57491;42.694;23.314;2023-04-23T09:27:38;95104.47;;;25.25;27.68
70127;BME280;57491;42.694;23.314;2023-04-23T09:30:06;95102.59;;;25.30;27.90
70127;BME280;57491;42.694;23.314;2023-04-23T09:32:36;95106.34;;;25.04;27.97
70127;BME280;57491;42.694;23.314;2023-04-23T09:35:05;95102.09;;;24.48;28.76
70127;BME280;57491;42.694;23.314;2023-04-23T09:37:33;95105.53;;;23.61;29.79
70127;BME280;57491;42.694;23.314;2023-04-23T09:40:01;95100.31;;;23.76;29.78
70127;BME280;57491;42.694;23.314;2023-04-23T09:42:31;95084.00;;;24.39;28.88
70127;BME280;57491;42.694;23.314;2023-04-23T09:45:01;95092.53;;;24.97;27.93
70127;BME280;57491;42.694;23.314;2023-04-23T09:47:31;95091.66;;;25.42;27.76
70127;BME280;57491;42.694;23.314;2023-04-23T09:49:58;95082.41;;;25.09;27.22
70127;BME280;57491;42.694;23.314;2023-04-23T09:52:26;95084.00;;;24.39;28.45
70127;BME280;57491;42.694;23.314;2023-04-23T09:54:55;95073.38;;;24.50;28.12
70127;BME280;57491;42.694;23.314;2023-04-23T09:57:24;95070.19;;;24.98;27.71
70127;BME280;57491;42.694;23.314;2023-04-23T09:59:52;95067.09;;;25.70;26.61
70127;BME280;57491;42.694;23.314;2023-04-23T10:02:26;95065.31;;;26.05;26.60
70127;BME280;57491;42.694;23.314;2023-04-23T10:04:53;95057.59;;;26.76;25.32
70127;BME280;57491;42.694;23.314;2023-04-23T10:07:21;95052.25;;;27.10;24.54
70127;BME280;57491;42.694;23.314;2023-04-23T10:09:49;95046.09;;;26.81;24.31
70127;BME280;57491;42.694;23.314;2023-04-23T10:12:17;95052.66;;;26.93;23.70
70127;BME280;57491;42.694;23.314;2023-04-23T10:14:45;95054.84;;;26.91;23.70
70127;BME280;57491;42.694;23.314;2023-04-23T10:17:19;95044.00;;;26.78;24.26
70127;BME280;57491;42.694;23.314;2023-04-23T10:19:48;95040.97;;;26.89;23.71
70127;BME280;57491;42.694;23.314;2023-04-23T10:22:18;95033.63;;;27.05;24.28
70127;BME280;57491;42.694;23.314;2023-04-23T10:24:52;95039.00;;;27.00;23.84
70127;BME280;57491;42.694;23.314;2023-04-23T10:27:25;95019.94;;;26.83;24.20
70127;BME280;57491;42.694;23.314;2023-04-23T10:29:53;95022.47;;;26.98;23.65
70127;BME280;57491;42.694;23.314;2023-04-23T10:32:22;95027.53;;;26.99;23.39
70127;BME280;57491;42.694;23.314;2023-04-23T10:34:50;95019.78;;;27.27;22.82
70127;BME280;57491;42.694;23.314;2023-04-23T10:37:18;95024.44;;;27.40;22.63
70127;BME280;57491;42.694;23.314;2023-04-23T10:39:49;95024.31;;;27.26;22.21
70127;BME280;57491;42.694;23.314;2023-04-23T10:42:16;95018.00;;;27.41;22.39
70127;BME280;57491;42.694;23.314;2023-04-23T10:44:44;95007.91;;;27.80;21.91
70127;BME280;57491;42.694;23.314;2023-04-23T10:47:12;95009.91;;;27.70;21.09
70127;BME280;57491;42.694;23.314;2023-04-23T10:49:42;94994.59;;;27.57;22.41
70127;BME280;57491;42.694;23.314;2023-04-23T10:52:12;95001.66;;;28.27;20.85
70127;BME280;57491;42.694;23.314;2023-04-23T10:54:41;94998.00;;;29.02;19.64
70127;BME280;57491;42.694;23.314;2023-04-23T10:57:09;94997.59;;;28.30;20.18
70127;BME280;57491;42.694;23.314;2023-04-23T10:59:38;94985.03;;;28.12;20.36
70127;BME280;57491;42.694;23.314;2023-04-23T11:02:07;94977.38;;;27.86;20.87
70127;BME280;57491;42.694;23.314;2023-04-23T11:04:39;94984.72;;;27.76;20.91
70127;BME280;57491;42.694;23.314;2023-04-23T11:07:09;94984.31;;;28.57;20.03
70127;BME280;57491;42.694;23.314;2023-04-23T11:09:39;94976.28;;;28.90;19.18
70127;BME280;57491;42.694;23.314;2023-04-23T11:12:08;94969.75;;;29.37;18.57
70127;BME280;57491;42.694;23.314;2023-04-23T11:14:47;94981.22;;;29.23;19.09
70127;BME280;57491;42.694;23.314;2023-04-23T11:17:16;94960.34;;;28.66;19.10
70127;BME280;57491;42.694;23.314;2023-04-23T11:20:06;94953.31;;;27.68;19.15
70127;BME280;57491;42.694;23.314;2023-04-23T11:22:37;94959.81;;;27.80;19.40
70127;BME280;57491;42.694;23.314;2023-04-23T11:25:08;94950.78;;;27.58;18.40
70127;BME280;57491;42.694;23.314;2023-04-23T11:27:37;94951.97;;;28.40;18.04
70127;BME280;57491;42.694;23.314;2023-04-23T11:30:10;94946.84;;;28.90;16.81
70127;BME280;57491;42.694;23.314;2023-04-23T11:32:38;94940.94;;;29.69;17.15
70127;BME280;57491;42.694;23.314;2023-04-23T11:35:07;94939.28;;;29.82;17.84
70127;BME280;57491;42.694;23.314;2023-04-23T11:37:39;94941.28;;;29.77;16.24
70127;BME280;57491;42.694;23.314;2023-04-23T11:40:08;94938.19;;;29.20;16.59
70127;BME280;57491;42.694;23.314;2023-04-23T11:42:42;94943.47;;;28.98;17.06
70127;BME280;57491;42.694;23.314;2023-04-23T11:45:15;94924.03;;;29.06;17.23
70127;BME280;57491;42.694;23.314;2023-04-23T11:47:43;94935.00;;;28.63;16.70
70127;BME280;57491;42.694;23.314;2023-04-23T11:50:16;94928.91;;;28.44;16.98
70127;BME280;57491;42.694;23.314;2023-04-23T11:52:45;94918.78;;;29.01;17.02
70127;BME280;57491;42.694;23.314;2023-04-23T11:55:12;94917.53;;;29.61;16.44
70127;BME280;57491;42.694;23.314;2023-04-23T11:57:41;94923.81;;;29.93;15.94
70127;BME280;57491;42.694;23.314;2023-04-23T12:00:14;94917.28;;;29.85;16.18
70127;BME280;57491;42.694;23.314;2023-04-23T12:02:54;94911.78;;;29.54;16.73
70127;BME280;57491;42.694;23.314;2023-04-23T12:05:25;94909.66;;;30.23;16.00
70127;BME280;57491;42.694;23.314;2023-04-23T12:08:05;94905.53;;;30.70;16.00
70127;BME280;57491;42.694;23.314;2023-04-23T12:10:40;94910.63;;;30.80;15.95
70127;BME280;57491;42.694;23.314;2023-04-23T12:13:12;94907.03;;;30.32;15.45
70127;BME280;57491;42.694;23.314;2023-04-23T12:15:46;94915.94;;;29.96;16.34
70127;BME280;57491;42.694;23.314;2023-04-23T12:18:15;94910.38;;;29.70;16.23
70127;BME280;57491;42.694;23.314;2023-04-23T12:20:42;94891.63;;;28.94;17.87
70127;BME280;57491;42.694;23.314;2023-04-23T12:23:10;94914.09;;;28.33;17.61
70127;BME280;57491;42.694;23.314;2023-04-23T12:25:39;94904.09;;;27.55;19.03
70127;BME280;57491;42.694;23.314;2023-04-23T12:28:07;94903.69;;;27.24;19.68
70127;BME280;57491;42.694;23.314;2023-04-23T12:30:42;94903.91;;;26.80;20.62
70127;BME280;57491;42.694;23.314;2023-04-23T12:33:10;94898.66;;;26.23;20.43
70127;BME280;57491;42.694;23.314;2023-04-23T12:35:39;94894.59;;;25.96;20.36
70127;BME280;57491;42.694;23.314;2023-04-23T12:38:06;94896.19;;;25.53;19.96
70127;BME280;57491;42.694;23.314;2023-04-23T12:40:34;94888.19;;;25.14;20.66
70127;BME280;57491;42.694;23.314;2023-04-23T12:43:02;94891.50;;;24.86;20.17
70127;BME280;57491;42.694;23.314;2023-04-23T12:45:35;94889.16;;;24.59;21.36
70127;BME280;57491;42.694;23.314;2023-04-23T12:48:03;94893.19;;;24.36;22.04
70127;BME280;57491;42.694;23.314;2023-04-23T12:50:30;94889.78;;;24.21;22.12
70127;BME280;57491;42.694;23.314;2023-04-23T12:52:57;94882.09;;;23.89;21.88
70127;BME280;57491;42.694;23.314;2023-04-23T12:55:24;94898.00;;;23.69;22.07
70127;BME280;57491;42.694;23.314;2023-04-23T12:57:53;94900.09;;;23.51;22.13